Terminal Aerodrome Forecast
Issued by NWS Green Bay, WI

Home | Current Version | Previous Version | Graphics & Text | Print | Product List | Glossary On
Versions: 1 2 3 4 5 6 7 8 9 10 11 12 13 14 15 16 17 18 19 20 21 22 23 24
000
FTUS43 KGRB 201140
TAFGRB
TAF
KGRB 201140Z 2012/2112 26005KT P6SM BKN200
      TEMPO 2014/2017 5SM BR
     FM210200 VRB03KT P6SM BKN100
      TEMPO 2108/2112 5SM BR=

USA.gov is the U.S. government's official web portal to all federal, state and local government web resources and services.